sensor_id;sensor_type;location;lat;lon;timestamp;temperature;humidity
11246;DHT22;59870;50.106;8.580;2023-03-13T00:01:11;13.10;90.40
11246;DHT22;59870;50.106;8.580;2023-03-13T00:03:39;13.10;90.50
11246;DHT22;59870;50.106;8.580;2023-03-13T00:06:07;13.10;90.40
11246;DHT22;59870;50.106;8.580;2023-03-13T00:08:35;13.40;90.60
11246;DHT22;59870;50.106;8.580;2023-03-13T00:11:04;13.10;90.50
11246;DHT22;59870;50.106;8.580;2023-03-13T00:13:32;13.10;90.60
11246;DHT22;59870;50.106;8.580;2023-03-13T00:16:05;13.10;90.60
11246;DHT22;59870;50.106;8.580;2023-03-13T00:18:33;13.10;90.60
11246;DHT22;59870;50.106;8.580;2023-03-13T00:21:02;13.10;90.60
11246;DHT22;59870;50.106;8.580;2023-03-13T00:23:31;13.10;90.60
11246;DHT22;59870;50.106;8.580;2023-03-13T00:26:05;13.20;90.60
11246;DHT22;59870;50.106;8.580;2023-03-13T00:28:33;13.10;90.60
11246;DHT22;59870;50.106;8.580;2023-03-13T00:31:10;13.20;90.60
11246;DHT22;59870;50.106;8.580;2023-03-13T00:33:43;13.20;90.60
11246;DHT22;59870;50.106;8.580;2023-03-13T00:36:15;13.20;90.60
11246;DHT22;59870;50.106;8.580;2023-03-13T00:38:44;13.20;90.60
11246;DHT22;59870;50.106;8.580;2023-03-13T00:41:19;13.20;90.60
11246;DHT22;59870;50.106;8.580;2023-03-13T00:43:48;13.20;90.60
11246;DHT22;59870;50.106;8.580;2023-03-13T00:46:18;13.20;90.60
11246;DHT22;59870;50.106;8.580;2023-03-13T00:48:47;13.20;90.60
11246;DHT22;59870;50.106;8.580;2023-03-13T00:51:16;13.20;90.60
11246;DHT22;59870;50.106;8.580;2023-03-13T00:53:45;13.20;90.60
11246;DHT22;59870;50.106;8.580;2023-03-13T00:56:14;13.20;90.60
11246;DHT22;59870;50.106;8.580;2023-03-13T00:58:44;13.20;90.70
11246;DHT22;59870;50.106;8.580;2023-03-13T01:03:46;13.20;90.60
11246;DHT22;59870;50.106;8.580;2023-03-13T01:06:18;13.30;90.60
11246;DHT22;59870;50.106;8.580;2023-03-13T01:08:46;13.30;90.60
11246;DHT22;59870;50.106;8.580;2023-03-13T01:11:16;13.30;90.60
11246;DHT22;59870;50.106;8.580;2023-03-13T01:13:45;13.30;90.60
11246;DHT22;59870;50.106;8.580;2023-03-13T01:16:15;13.30;90.60
11246;DHT22;59870;50.106;8.580;2023-03-13T01:18:46;13.30;90.60
11246;DHT22;59870;50.106;8.580;2023-03-13T01:21:15;13.30;90.60
11246;DHT22;59870;50.106;8.580;2023-03-13T01:23:43;13.50;91.00
11246;DHT22;59870;50.106;8.580;2023-03-13T01:26:11;13.40;90.70
11246;DHT22;59870;50.106;8.580;2023-03-13T01:28:39;13.40;90.70
11246;DHT22;59870;50.106;8.580;2023-03-13T01:31:14;13.40;90.60
11246;DHT22;59870;50.106;8.580;2023-03-13T01:33:45;13.40;90.60
11246;DHT22;59870;50.106;8.580;2023-03-13T01:36:15;13.50;90.60
11246;DHT22;59870;50.106;8.580;2023-03-13T01:38:43;13.50;91.00
11246;DHT22;59870;50.106;8.580;2023-03-13T01:41:13;13.50;90.60
11246;DHT22;59870;50.106;8.580;2023-03-13T01:43:43;13.50;90.60
11246;DHT22;59870;50.106;8.580;2023-03-13T01:46:22;13.50;90.60
11246;DHT22;59870;50.106;8.580;2023-03-13T01:49:28;13.60;90.50
11246;DHT22;59870;50.106;8.580;2023-03-13T01:52:05;13.60;90.60
11246;DHT22;59870;50.106;8.580;2023-03-13T01:54:47;13.90;90.70
11246;DHT22;59870;50.106;8.580;2023-03-13T02:00:22;13.60;90.50
11246;DHT22;59870;50.106;8.580;2023-03-13T02:02:53;13.60;90.50
11246;DHT22;59870;50.106;8.580;2023-03-13T02:05:24;13.70;90.70
11246;DHT22;59870;50.106;8.580;2023-03-13T02:08:08;13.70;91.00
11246;DHT22;59870;50.106;8.580;2023-03-13T02:10:41;13.80;91.00
11246;DHT22;59870;50.106;8.580;2023-03-13T02:13:11;13.80;91.00
11246;DHT22;59870;50.106;8.580;2023-03-13T02:15:41;13.80;90.90
11246;DHT22;59870;50.106;8.580;2023-03-13T02:18:09;13.80;90.90
11246;DHT22;59870;50.106;8.580;2023-03-13T02:20:38;13.80;91.00
11246;DHT22;59870;50.106;8.580;2023-03-13T02:25:47;13.80;91.00
11246;DHT22;59870;50.106;8.580;2023-03-13T02:28:24;13.80;91.20
11246;DHT22;59870;50.106;8.580;2023-03-13T02:30:54;13.80;91.20
11246;DHT22;59870;50.106;8.580;2023-03-13T02:33:28;13.80;91.10
11246;DHT22;59870;50.106;8.580;2023-03-13T02:35:58;13.80;91.20
11246;DHT22;59870;50.106;8.580;2023-03-13T02:38:28;13.90;91.30
11246;DHT22;59870;50.106;8.580;2023-03-13T02:40:57;13.80;91.40
11246;DHT22;59870;50.106;8.580;2023-03-13T02:43:30;13.90;91.30
11246;DHT22;59870;50.106;8.580;2023-03-13T02:46:12;13.90;91.30
11246;DHT22;59870;50.106;8.580;2023-03-13T02:48:47;13.90;91.40
11246;DHT22;59870;50.106;8.580;2023-03-13T02:53:48;14.00;91.70
11246;DHT22;59870;50.106;8.580;2023-03-13T02:56:19;14.00;91.50
11246;DHT22;59870;50.106;8.580;2023-03-13T02:58:48;13.90;91.50
11246;DHT22;59870;50.106;8.580;2023-03-13T03:01:21;13.90;91.60
11246;DHT22;59870;50.106;8.580;2023-03-13T03:03:48;13.90;91.70
11246;DHT22;59870;50.106;8.580;2023-03-13T03:06:16;14.00;91.80
11246;DHT22;59870;50.106;8.580;2023-03-13T03:08:44;14.00;92.00
11246;DHT22;59870;50.106;8.580;2023-03-13T03:11:12;14.00;92.10
11246;DHT22;59870;50.106;8.580;2023-03-13T03:13:42;13.90;92.10
11246;DHT22;59870;50.106;8.580;2023-03-13T03:16:12;14.00;92.10
11246;DHT22;59870;50.106;8.580;2023-03-13T03:18:41;13.90;92.50
11246;DHT22;59870;50.106;8.580;2023-03-13T03:21:09;13.90;92.10
11246;DHT22;59870;50.106;8.580;2023-03-13T03:23:38;13.90;92.10
11246;DHT22;59870;50.106;8.580;2023-03-13T03:26:06;13.90;92.10
11246;DHT22;59870;50.106;8.580;2023-03-13T03:28:34;13.90;92.20
11246;DHT22;59870;50.106;8.580;2023-03-13T03:31:10;14.00;92.20
11246;DHT22;59870;50.106;8.580;2023-03-13T03:33:40;13.90;92.20
11246;DHT22;59870;50.106;8.580;2023-03-13T03:36:13;13.90;92.50
11246;DHT22;59870;50.106;8.580;2023-03-13T03:38:42;13.90;92.70
11246;DHT22;59870;50.106;8.580;2023-03-13T03:41:12;13.90;92.90
11246;DHT22;59870;50.106;8.580;2023-03-13T03:43:40;14.00;93.10
11246;DHT22;59870;50.106;8.580;2023-03-13T03:46:09;13.90;93.20
11246;DHT22;59870;50.106;8.580;2023-03-13T03:48:37;13.90;93.30
11246;DHT22;59870;50.106;8.580;2023-03-13T03:51:06;13.90;93.40
11246;DHT22;59870;50.106;8.580;2023-03-13T03:53:37;13.90;93.60
11246;DHT22;59870;50.106;8.580;2023-03-13T03:56:05;13.90;93.50
11246;DHT22;59870;50.106;8.580;2023-03-13T03:58:33;13.90;93.70
11246;DHT22;59870;50.106;8.580;2023-03-13T04:01:12;13.90;93.90
11246;DHT22;59870;50.106;8.580;2023-03-13T04:03:40;13.90;94.00
11246;DHT22;59870;50.106;8.580;2023-03-13T04:06:08;13.80;94.10
11246;DHT22;59870;50.106;8.580;2023-03-13T04:08:36;13.80;94.20
11246;DHT22;59870;50.106;8.580;2023-03-13T04:11:04;13.80;94.10
11246;DHT22;59870;50.106;8.580;2023-03-13T04:13:36;13.80;94.20
11246;DHT22;59870;50.106;8.580;2023-03-13T04:16:08;13.80;94.30
11246;DHT22;59870;50.106;8.580;2023-03-13T04:18:36;13.70;94.40
11246;DHT22;59870;50.106;8.580;2023-03-13T04:21:05;13.70;94.50
11246;DHT22;59870;50.106;8.580;2023-03-13T04:23:44;13.70;94.60
11246;DHT22;59870;50.106;8.580;2023-03-13T04:26:13;13.70;94.60
11246;DHT22;59870;50.106;8.580;2023-03-13T04:28:41;13.70;94.60
11246;DHT22;59870;50.106;8.580;2023-03-13T04:31:10;13.70;94.80
11246;DHT22;59870;50.106;8.580;2023-03-13T04:33:49;13.70;94.80
11246;DHT22;59870;50.106;8.580;2023-03-13T04:36:45;13.70;94.80
11246;DHT22;59870;50.106;8.580;2023-03-13T04:39:35;13.70;94.80
11246;DHT22;59870;50.106;8.580;2023-03-13T04:42:15;13.70;94.80
11246;DHT22;59870;50.106;8.580;2023-03-13T04:45:07;13.70;94.80
11246;DHT22;59870;50.106;8.580;2023-03-13T04:47:55;13.70;94.90
11246;DHT22;59870;50.106;8.580;2023-03-13T04:50:41;13.70;95.00
11246;DHT22;59870;50.106;8.580;2023-03-13T04:53:22;13.70;95.00
11246;DHT22;59870;50.106;8.580;2023-03-13T04:56:03;13.70;95.20
11246;DHT22;59870;50.106;8.580;2023-03-13T04:58:49;13.70;95.30
11246;DHT22;59870;50.106;8.580;2023-03-13T05:01:35;13.70;95.30
11246;DHT22;59870;50.106;8.580;2023-03-13T05:04:15;13.70;95.40
11246;DHT22;59870;50.106;8.580;2023-03-13T05:06:59;13.70;95.60
11246;DHT22;59870;50.106;8.580;2023-03-13T05:09:45;13.70;95.60
11246;DHT22;59870;50.106;8.580;2023-03-13T05:12:40;14.20;96.00
11246;DHT22;59870;50.106;8.580;2023-03-13T05:15:26;13.70;96.00
11246;DHT22;59870;50.106;8.580;2023-03-13T05:18:10;13.80;96.20
11246;DHT22;59870;50.106;8.580;2023-03-13T05:20:49;13.80;96.40
11246;DHT22;59870;50.106;8.580;2023-03-13T05:23:30;13.80;96.60
11246;DHT22;59870;50.106;8.580;2023-03-13T05:26:29;13.80;96.80
11246;DHT22;59870;50.106;8.580;2023-03-13T05:29:29;13.90;97.00
11246;DHT22;59870;50.106;8.580;2023-03-13T05:32:06;13.90;97.20
11246;DHT22;59870;50.106;8.580;2023-03-13T05:34:46;13.90;97.30
11246;DHT22;59870;50.106;8.580;2023-03-13T05:37:42;13.90;97.40
11246;DHT22;59870;50.106;8.580;2023-03-13T05:40:29;13.90;97.60
11246;DHT22;59870;50.106;8.580;2023-03-13T05:43:15;14.00;97.70
11246;DHT22;59870;50.106;8.580;2023-03-13T05:46:02;14.00;97.70
11246;DHT22;59870;50.106;8.580;2023-03-13T05:48:50;14.00;97.80
11246;DHT22;59870;50.106;8.580;2023-03-13T05:51:35;14.00;98.00
11246;DHT22;59870;50.106;8.580;2023-03-13T05:54:28;14.00;98.00
11246;DHT22;59870;50.106;8.580;2023-03-13T05:57:14;14.10;98.10
11246;DHT22;59870;50.106;8.580;2023-03-13T05:59:50;14.10;98.10
11246;DHT22;59870;50.106;8.580;2023-03-13T06:02:36;14.10;98.20
11246;DHT22;59870;50.106;8.580;2023-03-13T06:05:06;14.10;98.20
11246;DHT22;59870;50.106;8.580;2023-03-13T06:07:33;14.10;98.40
11246;DHT22;59870;50.106;8.580;2023-03-13T06:10:01;14.20;98.60
11246;DHT22;59870;50.106;8.580;2023-03-13T06:12:29;14.20;98.50
11246;DHT22;59870;50.106;8.580;2023-03-13T06:14:56;14.20;98.50
11246;DHT22;59870;50.106;8.580;2023-03-13T06:17:44;14.20;98.50
11246;DHT22;59870;50.106;8.580;2023-03-13T06:20:11;14.20;98.50
11246;DHT22;59870;50.106;8.580;2023-03-13T06:22:40;14.20;98.60
11246;DHT22;59870;50.106;8.580;2023-03-13T06:25:08;14.30;98.60
11246;DHT22;59870;50.106;8.580;2023-03-13T06:27:35;14.30;98.70
11246;DHT22;59870;50.106;8.580;2023-03-13T06:30:03;14.30;98.60
11246;DHT22;59870;50.106;8.580;2023-03-13T06:32:30;14.30;98.70
11246;DHT22;59870;50.106;8.580;2023-03-13T06:34:58;14.40;98.70
11246;DHT22;59870;50.106;8.580;2023-03-13T06:37:25;14.40;98.70
11246;DHT22;59870;50.106;8.580;2023-03-13T06:39:52;14.40;98.80
11246;DHT22;59870;50.106;8.580;2023-03-13T06:42:20;14.40;98.70
11246;DHT22;59870;50.106;8.580;2023-03-13T06:44:48;14.40;98.80
11246;DHT22;59870;50.106;8.580;2023-03-13T06:47:15;14.40;98.80
11246;DHT22;59870;50.106;8.580;2023-03-13T06:49:43;14.40;98.90
11246;DHT22;59870;50.106;8.580;2023-03-13T06:52:10;14.40;98.90
11246;DHT22;59870;50.106;8.580;2023-03-13T06:54:38;14.50;99.00
11246;DHT22;59870;50.106;8.580;2023-03-13T06:57:05;14.50;99.00
11246;DHT22;59870;50.106;8.580;2023-03-13T06:59:33;14.50;98.90
11246;DHT22;59870;50.106;8.580;2023-03-13T07:02:00;14.50;98.90
11246;DHT22;59870;50.106;8.580;2023-03-13T07:04:28;14.60;99.00
11246;DHT22;59870;50.106;8.580;2023-03-13T07:06:55;14.60;99.00
11246;DHT22;59870;50.106;8.580;2023-03-13T07:09:23;14.70;99.00
11246;DHT22;59870;50.106;8.580;2023-03-13T07:11:50;14.70;99.00
11246;DHT22;59870;50.106;8.580;2023-03-13T07:14:17;14.70;99.00
11246;DHT22;59870;50.106;8.580;2023-03-13T07:16:45;14.70;99.30
11246;DHT22;59870;50.106;8.580;2023-03-13T07:19:12;14.70;99.00
11246;DHT22;59870;50.106;8.580;2023-03-13T07:21:42;14.80;99.00
11246;DHT22;59870;50.106;8.580;2023-03-13T07:24:10;14.90;99.00
11246;DHT22;59870;50.106;8.580;2023-03-13T07:26:37;14.90;99.00
11246;DHT22;59870;50.106;8.580;2023-03-13T07:29:05;15.00;99.00
11246;DHT22;59870;50.106;8.580;2023-03-13T07:31:32;15.00;99.00
11246;DHT22;59870;50.106;8.580;2023-03-13T07:34:00;15.00;99.00
11246;DHT22;59870;50.106;8.580;2023-03-13T07:36:27;15.00;99.00
11246;DHT22;59870;50.106;8.580;2023-03-13T07:38:55;15.10;99.00
11246;DHT22;59870;50.106;8.580;2023-03-13T07:41:23;15.20;98.90
11246;DHT22;59870;50.106;8.580;2023-03-13T07:43:50;15.30;98.90
11246;DHT22;59870;50.106;8.580;2023-03-13T07:46:18;15.30;98.90
11246;DHT22;59870;50.106;8.580;2023-03-13T07:48:46;15.40;98.90
11246;DHT22;59870;50.106;8.580;2023-03-13T07:51:19;15.40;98.70
11246;DHT22;59870;50.106;8.580;2023-03-13T07:54:04;15.50;98.70
11246;DHT22;59870;50.106;8.580;2023-03-13T07:56:32;15.80;98.60
11246;DHT22;59870;50.106;8.580;2023-03-13T07:59:00;15.60;98.40
11246;DHT22;59870;50.106;8.580;2023-03-13T08:01:28;15.60;98.30
11246;DHT22;59870;50.106;8.580;2023-03-13T08:03:57;15.70;98.30
11246;DHT22;59870;50.106;8.580;2023-03-13T08:06:30;15.70;98.30
11246;DHT22;59870;50.106;8.580;2023-03-13T08:09:00;15.80;98.20
11246;DHT22;59870;50.106;8.580;2023-03-13T08:11:28;15.80;98.10
11246;DHT22;59870;50.106;8.580;2023-03-13T08:13:56;15.80;98.10
11246;DHT22;59870;50.106;8.580;2023-03-13T08:16:26;15.80;98.00
11246;DHT22;59870;50.106;8.580;2023-03-13T08:18:56;15.90;97.90
11246;DHT22;59870;50.106;8.580;2023-03-13T08:21:27;15.90;97.90
11246;DHT22;59870;50.106;8.580;2023-03-13T08:23:56;16.00;97.90
11246;DHT22;59870;50.106;8.580;2023-03-13T08:26:27;16.00;97.90
11246;DHT22;59870;50.106;8.580;2023-03-13T08:29:03;16.10;98.10
11246;DHT22;59870;50.106;8.580;2023-03-13T08:31:36;16.20;98.00
11246;DHT22;59870;50.106;8.580;2023-03-13T08:34:04;16.20;98.00
11246;DHT22;59870;50.106;8.580;2023-03-13T08:36:34;16.30;98.00
11246;DHT22;59870;50.106;8.580;2023-03-13T08:39:04;16.30;97.90
11246;DHT22;59870;50.106;8.580;2023-03-13T08:41:34;16.40;97.80
11246;DHT22;59870;50.106;8.580;2023-03-13T08:44:03;16.40;97.70
11246;DHT22;59870;50.106;8.580;2023-03-13T08:46:33;16.50;97.80
11246;DHT22;59870;50.106;8.580;2023-03-13T08:49:03;16.60;97.70
11246;DHT22;59870;50.106;8.580;2023-03-13T08:51:31;16.70;97.70
11246;DHT22;59870;50.106;8.580;2023-03-13T08:54:00;16.70;97.50
11246;DHT22;59870;50.106;8.580;2023-03-13T08:56:29;16.80;97.40
11246;DHT22;59870;50.106;8.580;2023-03-13T08:58:58;16.90;97.20
11246;DHT22;59870;50.106;8.580;2023-03-13T09:01:29;17.40;97.20
11246;DHT22;59870;50.106;8.580;2023-03-13T09:03:57;17.00;96.80
11246;DHT22;59870;50.106;8.580;2023-03-13T09:06:34;17.00;96.80
11246;DHT22;59870;50.106;8.580;2023-03-13T09:09:03;17.10;96.70
11246;DHT22;59870;50.106;8.580;2023-03-13T09:11:31;17.10;96.70
11246;DHT22;59870;50.106;8.580;2023-03-13T09:13:59;17.20;96.70
11246;DHT22;59870;50.106;8.580;2023-03-13T09:16:29;17.20;96.70
11246;DHT22;59870;50.106;8.580;2023-03-13T09:18:57;17.20;96.70
11246;DHT22;59870;50.106;8.580;2023-03-13T09:21:33;17.20;96.50
11246;DHT22;59870;50.106;8.580;2023-03-13T09:24:01;17.30;96.30
11246;DHT22;59870;50.106;8.580;2023-03-13T09:26:29;17.30;96.20
11246;DHT22;59870;50.106;8.580;2023-03-13T09:28:56;17.30;96.20
11246;DHT22;59870;50.106;8.580;2023-03-13T09:31:27;17.40;96.10
11246;DHT22;59870;50.106;8.580;2023-03-13T09:33:55;17.40;96.10
11246;DHT22;59870;50.106;8.580;2023-03-13T09:36:23;17.50;96.00
11246;DHT22;59870;50.106;8.580;2023-03-13T09:38:53;17.50;96.00
11246;DHT22;59870;50.106;8.580;2023-03-13T09:44:39;17.60;96.00
11246;DHT22;59870;50.106;8.580;2023-03-13T09:47:24;17.60;95.70
11246;DHT22;59870;50.106;8.580;2023-03-13T09:50:00;17.70;95.50
11246;DHT22;59870;50.106;8.580;2023-03-13T09:52:33;17.70;95.50
11246;DHT22;59870;50.106;8.580;2023-03-13T09:55:30;18.10;95.60
11246;DHT22;59870;50.106;8.580;2023-03-13T09:58:18;17.80;95.20
11246;DHT22;59870;50.106;8.580;2023-03-13T10:00:53;17.90;95.00
11246;DHT22;59870;50.106;8.580;2023-03-13T10:03:28;17.90;95.00
11246;DHT22;59870;50.106;8.580;2023-03-13T10:06:21;17.90;94.80
11246;DHT22;59870;50.106;8.580;2023-03-13T10:08:47;17.90;94.90
11246;DHT22;59870;50.106;8.580;2023-03-13T10:11:27;18.00;94.80
11246;DHT22;59870;50.106;8.580;2023-03-13T10:16:55;18.00;94.70
11246;DHT22;59870;50.106;8.580;2023-03-13T10:19:34;18.10;94.80
11246;DHT22;59870;50.106;8.580;2023-03-13T10:22:12;18.20;94.80
11246;DHT22;59870;50.106;8.580;2023-03-13T10:27:30;18.40;94.50
11246;DHT22;59870;50.106;8.580;2023-03-13T10:29:58;18.50;94.30
11246;DHT22;59870;50.106;8.580;2023-03-13T10:32:26;18.50;94.30
11246;DHT22;59870;50.106;8.580;2023-03-13T10:34:57;18.60;94.10
11246;DHT22;59870;50.106;8.580;2023-03-13T10:37:29;18.60;93.80
11246;DHT22;59870;50.106;8.580;2023-03-13T10:40:19;18.60;93.70
11246;DHT22;59870;50.106;8.580;2023-03-13T10:42:46;18.70;93.60
11246;DHT22;59870;50.106;8.580;2023-03-13T10:45:17;18.70;93.70
11246;DHT22;59870;50.106;8.580;2023-03-13T10:47:53;18.60;93.60
11246;DHT22;59870;50.106;8.580;2023-03-13T10:50:26;18.70;93.60
11246;DHT22;59870;50.106;8.580;2023-03-13T10:52:56;18.70;93.90
11246;DHT22;59870;50.106;8.580;2023-03-13T10:55:25;18.80;93.70
11246;DHT22;59870;50.106;8.580;2023-03-13T10:58:02;18.90;93.50
11246;DHT22;59870;50.106;8.580;2023-03-13T11:00:39;19.50;93.60
11246;DHT22;59870;50.106;8.580;2023-03-13T11:05:55;19.30;93.50
11246;DHT22;59870;50.106;8.580;2023-03-13T11:08:41;19.40;92.90
11246;DHT22;59870;50.106;8.580;2023-03-13T11:11:18;19.40;92.80
11246;DHT22;59870;50.106;8.580;2023-03-13T11:13:46;19.40;92.40
11246;DHT22;59870;50.106;8.580;2023-03-13T11:16:17;19.50;92.50
11246;DHT22;59870;50.106;8.580;2023-03-13T11:24:41;19.50;92.30
11246;DHT22;59870;50.106;8.580;2023-03-13T11:30:37;19.50;92.40
11246;DHT22;59870;50.106;8.580;2023-03-13T11:45:25;19.60;91.80
11246;DHT22;59870;50.106;8.580;2023-03-13T11:51:11;19.60;91.50
11246;DHT22;59870;50.106;8.580;2023-03-13T11:56:45;19.60;91.30
11246;DHT22;59870;50.106;8.580;2023-03-13T12:04:57;19.60;91.40
11246;DHT22;59870;50.106;8.580;2023-03-13T12:08:05;19.60;91.40
11246;DHT22;59870;50.106;8.580;2023-03-13T12:10:40;19.70;91.70
11246;DHT22;59870;50.106;8.580;2023-03-13T12:13:18;19.80;91.30
11246;DHT22;59870;50.106;8.580;2023-03-13T12:15:51;19.80;91.10
11246;DHT22;59870;50.106;8.580;2023-03-13T12:18:27;19.80;91.00
11246;DHT22;59870;50.106;8.580;2023-03-13T12:34:52;19.90;91.20
11246;DHT22;59870;50.106;8.580;2023-03-13T12:37:46;19.80;91.20
11246;DHT22;59870;50.106;8.580;2023-03-13T12:43:25;19.90;91.70
11246;DHT22;59870;50.106;8.580;2023-03-13T12:48:41;19.90;91.90
11246;DHT22;59870;50.106;8.580;2023-03-13T12:54:16;19.80;92.40
11246;DHT22;59870;50.106;8.580;2023-03-13T12:59:46;19.90;92.60
11246;DHT22;59870;50.106;8.580;2023-03-13T13:02:18;19.90;92.40
11246;DHT22;59870;50.106;8.580;2023-03-13T13:04:48;19.90;92.60
11246;DHT22;59870;50.106;8.580;2023-03-13T13:07:30;19.90;92.70
11246;DHT22;59870;50.106;8.580;2023-03-13T13:12:37;19.80;92.80
11246;DHT22;59870;50.106;8.580;2023-03-13T13:15:28;19.80;93.00
11246;DHT22;59870;50.106;8.580;2023-03-13T13:23:47;19.90;93.30
11246;DHT22;59870;50.106;8.580;2023-03-13T13:28:53;20.00;93.60
11246;DHT22;59870;50.106;8.580;2023-03-13T13:37:00;20.10;93.40
11246;DHT22;59870;50.106;8.580;2023-03-13T13:39:43;20.20;93.10
11246;DHT22;59870;50.106;8.580;2023-03-13T13:45:36;20.70;93.30
11246;DHT22;59870;50.106;8.580;2023-03-13T13:48:27;20.50;93.20
11246;DHT22;59870;50.106;8.580;2023-03-13T13:53:55;20.70;93.00
11246;DHT22;59870;50.106;8.580;2023-03-13T13:56:30;20.80;92.60
11246;DHT22;59870;50.106;8.580;2023-03-13T14:02:13;20.90;92.70
11246;DHT22;59870;50.106;8.580;2023-03-13T14:04:53;21.00;92.40
11246;DHT22;59870;50.106;8.580;2023-03-13T14:07:30;21.10;92.40
11246;DHT22;59870;50.106;8.580;2023-03-13T14:12:53;21.20;92.10
11246;DHT22;59870;50.106;8.580;2023-03-13T14:15:29;21.20;92.00
11246;DHT22;59870;50.106;8.580;2023-03-13T14:20:37;21.40;91.90
11246;DHT22;59870;50.106;8.580;2023-03-13T14:23:09;21.40;91.60
11246;DHT22;59870;50.106;8.580;2023-03-13T14:25:49;21.50;91.80
11246;DHT22;59870;50.106;8.580;2023-03-13T14:28:22;21.50;91.70
11246;DHT22;59870;50.106;8.580;2023-03-13T14:30:52;21.60;91.60
11246;DHT22;59870;50.106;8.580;2023-03-13T14:33:20;21.60;92.00
11246;DHT22;59870;50.106;8.580;2023-03-13T14:35:48;21.60;91.40
11246;DHT22;59870;50.106;8.580;2023-03-13T14:38:22;21.70;91.40
11246;DHT22;59870;50.106;8.580;2023-03-13T14:40:50;21.70;91.30
11246;DHT22;59870;50.106;8.580;2023-03-13T14:43:34;21.80;91.10
11246;DHT22;59870;50.106;8.580;2023-03-13T14:46:35;21.80;90.90
11246;DHT22;59870;50.106;8.580;2023-03-13T14:49:23;21.80;91.10
11246;DHT22;59870;50.106;8.580;2023-03-13T14:54:29;21.90;90.90
11246;DHT22;59870;50.106;8.580;2023-03-13T14:57:13;21.90;90.80
11246;DHT22;59870;50.106;8.580;2023-03-13T14:59:42;21.80;90.70
11246;DHT22;59870;50.106;8.580;2023-03-13T15:02:30;21.80;91.10
11246;DHT22;59870;50.106;8.580;2023-03-13T15:04:59;22.00;91.50
11246;DHT22;59870;50.106;8.580;2023-03-13T15:10:23;21.70;91.50
11246;DHT22;59870;50.106;8.580;2023-03-13T15:12:51;21.60;92.10
11246;DHT22;59870;50.106;8.580;2023-03-13T15:15:19;21.90;91.90
11246;DHT22;59870;50.106;8.580;2023-03-13T15:17:47;21.50;92.20
11246;DHT22;59870;50.106;8.580;2023-03-13T15:20:15;21.30;91.60
11246;DHT22;59870;50.106;8.580;2023-03-13T15:22:44;21.10;91.50
11246;DHT22;59870;50.106;8.580;2023-03-13T15:25:21;20.90;91.70
11246;DHT22;59870;50.106;8.580;2023-03-13T15:27:49;20.70;91.60
11246;DHT22;59870;50.106;8.580;2023-03-13T15:30:18;20.60;92.00
11246;DHT22;59870;50.106;8.580;2023-03-13T15:32:46;20.30;92.70
11246;DHT22;59870;50.106;8.580;2023-03-13T15:37:49;19.70;93.20
11246;DHT22;59870;50.106;8.580;2023-03-13T15:40:17;19.50;93.20
11246;DHT22;59870;50.106;8.580;2023-03-13T15:42:46;19.30;93.60
11246;DHT22;59870;50.106;8.580;2023-03-13T15:45:13;19.10;93.40
11246;DHT22;59870;50.106;8.580;2023-03-13T15:47:41;18.90;93.70
11246;DHT22;59870;50.106;8.580;2023-03-13T15:50:12;18.80;93.90
11246;DHT22;59870;50.106;8.580;2023-03-13T15:52:40;18.60;93.90
11246;DHT22;59870;50.106;8.580;2023-03-13T15:55:12;18.50;94.00
11246;DHT22;59870;50.106;8.580;2023-03-13T15:57:45;18.40;94.40
11246;DHT22;59870;50.106;8.580;2023-03-13T16:00:24;18.30;94.40
11246;DHT22;59870;50.106;8.580;2023-03-13T16:02:53;18.20;94.60
11246;DHT22;59870;50.106;8.580;2023-03-13T16:05:20;18.10;95.10
11246;DHT22;59870;50.106;8.580;2023-03-13T16:07:48;18.10;95.40
11246;DHT22;59870;50.106;8.580;2023-03-13T16:10:27;18.10;95.40
11246;DHT22;59870;50.106;8.580;2023-03-13T16:13:00;18.00;95.50
11246;DHT22;59870;50.106;8.580;2023-03-13T16:15:31;18.20;95.70
11246;DHT22;59870;50.106;8.580;2023-03-13T16:17:58;17.90;95.70
11246;DHT22;59870;50.106;8.580;2023-03-13T16:20:25;17.90;95.60
11246;DHT22;59870;50.106;8.580;2023-03-13T16:22:56;17.90;95.70
11246;DHT22;59870;50.106;8.580;2023-03-13T16:25:24;17.80;95.80
11246;DHT22;59870;50.106;8.580;2023-03-13T16:27:52;17.80;95.70
11246;DHT22;59870;50.106;8.580;2023-03-13T16:30:25;17.80;95.60
11246;DHT22;59870;50.106;8.580;2023-03-13T16:32:53;17.70;95.60
11246;DHT22;59870;50.106;8.580;2023-03-13T16:35:22;17.70;95.60
11246;DHT22;59870;50.106;8.580;2023-03-13T16:37:49;17.70;95.60
11246;DHT22;59870;50.106;8.580;2023-03-13T16:40:21;17.70;95.80
11246;DHT22;59870;50.106;8.580;2023-03-13T16:42:50;17.60;95.70
11246;DHT22;59870;50.106;8.580;2023-03-13T16:45:18;17.60;95.90
11246;DHT22;59870;50.106;8.580;2023-03-13T16:47:49;17.60;95.70
11246;DHT22;59870;50.106;8.580;2023-03-13T16:50:34;17.60;95.80
11246;DHT22;59870;50.106;8.580;2023-03-13T16:53:14;17.60;95.80
11246;DHT22;59870;50.106;8.580;2023-03-13T16:55:43;17.60;95.50
11246;DHT22;59870;50.106;8.580;2023-03-13T16:58:13;17.60;95.70
11246;DHT22;59870;50.106;8.580;2023-03-13T17:00:41;17.50;95.70
11246;DHT22;59870;50.106;8.580;2023-03-13T17:03:18;17.60;95.70
11246;DHT22;59870;50.106;8.580;2023-03-13T17:05:46;17.50;96.00
11246;DHT22;59870;50.106;8.580;2023-03-13T17:08:13;17.50;95.70
11246;DHT22;59870;50.106;8.580;2023-03-13T17:10:41;17.50;95.80
11246;DHT22;59870;50.106;8.580;2023-03-13T17:13:08;17.90;95.90
11246;DHT22;59870;50.106;8.580;2023-03-13T17:15:36;17.40;95.60
11246;DHT22;59870;50.106;8.580;2023-03-13T17:18:04;17.40;95.70
11246;DHT22;59870;50.106;8.580;2023-03-13T17:20:33;17.30;95.70
11246;DHT22;59870;50.106;8.580;2023-03-13T17:23:05;17.30;96.00
11246;DHT22;59870;50.106;8.580;2023-03-13T17:25:33;17.30;96.00
11246;DHT22;59870;50.106;8.580;2023-03-13T17:28:01;17.40;96.00
11246;DHT22;59870;50.106;8.580;2023-03-13T17:30:30;17.20;95.90
11246;DHT22;59870;50.106;8.580;2023-03-13T17:32:57;17.20;95.90
11246;DHT22;59870;50.106;8.580;2023-03-13T17:35:25;17.20;96.00
11246;DHT22;59870;50.106;8.580;2023-03-13T17:37:53;17.10;96.00
11246;DHT22;59870;50.106;8.580;2023-03-13T17:40:24;17.10;96.40
11246;DHT22;59870;50.106;8.580;2023-03-13T17:42:52;17.10;96.20
11246;DHT22;59870;50.106;8.580;2023-03-13T17:45:21;17.10;96.10
11246;DHT22;59870;50.106;8.580;2023-03-13T17:47:49;17.10;96.10
11246;DHT22;59870;50.106;8.580;2023-03-13T17:50:26;17.10;96.10
11246;DHT22;59870;50.106;8.580;2023-03-13T17:52:54;17.10;96.10
11246;DHT22;59870;50.106;8.580;2023-03-13T17:55:46;17.10;96.20
11246;DHT22;59870;50.106;8.580;2023-03-13T17:58:16;17.50;96.40
11246;DHT22;59870;50.106;8.580;2023-03-13T18:00:43;17.10;96.30
11246;DHT22;59870;50.106;8.580;2023-03-13T18:03:13;17.10;96.30
11246;DHT22;59870;50.106;8.580;2023-03-13T18:05:40;17.10;96.30